createdAt,value
2022-10-05T00:01:30.387Z,59.47
2022-10-05T00:04:03.418Z,59.54
2022-10-05T00:06:32.861Z,59.27
2022-10-05T00:09:02.251Z,59.41
2022-10-05T00:11:30.348Z,59.61
2022-10-05T00:13:59.391Z,60.04
2022-10-05T00:16:27.362Z,60.23
2022-10-05T00:18:55.400Z,60.33
2022-10-05T00:21:26.400Z,60.02
2022-10-05T00:23:59.820Z,60.21
2022-10-05T00:26:33.143Z,59.94
2022-10-05T00:29:02.946Z,60.40
2022-10-05T00:31:33.911Z,60.37
2022-10-05T00:34:01.916Z,60.61
2022-10-05T00:36:30.050Z,60.43
2022-10-05T00:39:02.438Z,60.68
2022-10-05T00:41:40.389Z,60.65
2022-10-05T00:44:26.462Z,60.94
2022-10-05T00:46:58.546Z,61.13
2022-10-05T00:49:43.367Z,60.84
2022-10-05T00:52:23.569Z,61.24
2022-10-05T00:55:00.984Z,61.26
2022-10-05T00:57:38.302Z,61.49
2022-10-05T01:00:08.880Z,61.46
2022-10-05T01:02:48.484Z,61.13
2022-10-05T01:05:29.761Z,61.18
2022-10-05T01:08:06.123Z,61.30
2022-10-05T01:10:43.630Z,61.58
2022-10-05T01:13:20.994Z,61.94
2022-10-05T01:15:56.641Z,61.90
2022-10-05T01:18:38.809Z,61.74
2022-10-05T01:21:15.089Z,61.77
2022-10-05T01:24:17.277Z,61.99
2022-10-05T01:27:17.742Z,62.06
2022-10-05T01:29:51.086Z,62.14
2022-10-05T01:32:26.285Z,62.36
2022-10-05T01:35:02.275Z,62.33
2022-10-05T01:37:41.025Z,62.87
2022-10-05T01:40:14.312Z,62.73
2022-10-05T01:42:54.366Z,62.62
2022-10-05T01:45:34.089Z,63.05
2022-10-05T01:48:09.483Z,62.82
2022-10-05T01:50:50.221Z,62.87
2022-10-05T01:53:29.243Z,63.08
2022-10-05T01:56:07.457Z,63.51
2022-10-05T01:58:44.285Z,63.23
2022-10-05T02:01:19.482Z,63.41
2022-10-05T02:03:53.708Z,63.59
2022-10-05T02:06:24.640Z,63.75
2022-10-05T02:08:59.676Z,63.59
2022-10-05T02:11:27.871Z,63.71
2022-10-05T02:13:59.825Z,63.86
2022-10-05T02:16:35.661Z,63.46
2022-10-05T02:19:09.445Z,64.06
2022-10-05T02:21:37.970Z,64.14
2022-10-05T02:24:17.572Z,63.99
2022-10-05T02:26:47.931Z,64.35
2022-10-05T02:29:19.819Z,64.41
2022-10-05T02:31:55.448Z,64.44
2022-10-05T02:34:26.210Z,64.49
2022-10-05T02:37:03.631Z,64.63
2022-10-05T02:39:45.186Z,64.63
2022-10-05T02:42:23.728Z,64.62
2022-10-05T02:44:58.394Z,64.72
2022-10-05T02:47:34.831Z,64.97
2022-10-05T02:50:13.483Z,64.93
2022-10-05T02:52:54.269Z,65.16
2022-10-05T02:55:34.384Z,65.20
2022-10-05T02:58:09.600Z,65.21
2022-10-05T03:00:43.756Z,65.42
2022-10-05T03:03:22.652Z,65.34
2022-10-05T03:05:56.044Z,65.21
2022-10-05T03:08:31.375Z,65.51
2022-10-05T03:11:05.600Z,65.51
2022-10-05T03:13:42.057Z,65.75
2022-10-05T03:16:21.746Z,65.69
2022-10-05T03:19:03.627Z,65.86
2022-10-05T03:21:44.007Z,65.89
2022-10-05T03:24:37.718Z,65.87
2022-10-05T03:27:14.515Z,65.97
2022-10-05T03:29:48.569Z,66.02
2022-10-05T03:32:26.513Z,66.08
2022-10-05T03:35:03.977Z,66.21
2022-10-05T03:37:41.954Z,66.26
2022-10-05T03:40:21.671Z,66.32
2022-10-05T03:43:00.045Z,66.49
2022-10-05T03:45:34.071Z,66.32
2022-10-05T03:48:06.715Z,66.20
2022-10-05T03:50:45.864Z,66.47
2022-10-05T03:53:20.079Z,66.72
2022-10-05T03:55:55.384Z,66.65
2022-10-05T03:58:28.161Z,66.69
2022-10-05T04:01:01.254Z,66.78
2022-10-05T04:03:35.849Z,66.68
2022-10-05T04:06:11.727Z,66.97
2022-10-05T04:08:48.345Z,66.85
2022-10-05T04:11:22.464Z,66.84
2022-10-05T04:13:55.411Z,67.13
2022-10-05T04:16:28.032Z,66.96
2022-10-05T04:19:02.377Z,67.12
2022-10-05T04:21:36.226Z,67.11
2022-10-05T04:24:12.349Z,67.33
2022-10-05T04:26:47.217Z,67.30
2022-10-05T04:29:22.764Z,67.34
2022-10-05T04:32:02.748Z,67.32
2022-10-05T04:34:48.333Z,67.31
2022-10-05T04:37:23.178Z,67.59
2022-10-05T04:40:03.934Z,67.46
2022-10-05T04:42:37.653Z,67.43
2022-10-05T04:45:26.690Z,67.68
2022-10-05T04:48:09.221Z,67.47
2022-10-05T04:50:51.961Z,67.84
2022-10-05T04:53:30.565Z,67.82
2022-10-05T04:56:07.051Z,67.86
2022-10-05T04:58:53.395Z,67.98
2022-10-05T05:01:38.292Z,67.99
2022-10-05T05:04:26.807Z,68.06
2022-10-05T05:07:07.780Z,67.89
2022-10-05T05:10:04.360Z,68.07
2022-10-05T05:12:43.267Z,68.30
2022-10-05T05:15:27.361Z,68.13
2022-10-05T05:18:10.439Z,68.29
2022-10-05T05:20:53.151Z,68.23
2022-10-05T05:23:28.907Z,68.14
2022-10-05T05:26:09.641Z,68.32
2022-10-05T05:28:49.024Z,68.60
2022-10-05T05:31:25.662Z,68.63
2022-10-05T05:34:04.413Z,68.55
2022-10-05T05:36:47.470Z,68.55
2022-10-05T05:39:25.344Z,68.58
2022-10-05T05:42:01.569Z,68.83
2022-10-05T05:44:38.579Z,68.86
2022-10-05T05:47:19.809Z,68.98
2022-10-05T05:50:06.566Z,68.73
2022-10-05T05:52:40.416Z,69.13
2022-10-05T05:55:15.053Z,68.87
2022-10-05T05:57:51.470Z,69.07
2022-10-05T06:00:23.189Z,68.92
2022-10-05T06:02:58.397Z,69.25
2022-10-05T06:05:32.418Z,69.30
2022-10-05T06:08:07.207Z,69.14
2022-10-05T06:10:42.189Z,69.04
2022-10-05T06:13:18.267Z,69.33
2022-10-05T06:15:52.111Z,69.39
2022-10-05T06:18:23.191Z,69.32
2022-10-05T06:20:58.663Z,69.54
2022-10-05T06:23:31.457Z,69.51
2022-10-05T06:26:13.269Z,69.64
2022-10-05T06:28:43.229Z,69.36
2022-10-05T06:31:25.206Z,69.52
2022-10-05T06:33:55.970Z,69.52
2022-10-05T06:36:40.010Z,69.79
2022-10-05T06:39:28.987Z,69.68
2022-10-05T06:42:13.887Z,69.65
2022-10-05T06:44:53.503Z,69.56
2022-10-05T06:47:30.860Z,69.62
2022-10-05T06:50:14.274Z,69.59
2022-10-05T06:52:56.047Z,69.85
2022-10-05T06:55:31.351Z,70.15
2022-10-05T06:58:27.918Z,69.87
2022-10-05T07:01:04.338Z,69.92
2022-10-05T07:03:42.103Z,70.13
2022-10-05T07:06:16.436Z,69.96
2022-10-05T07:09:09.251Z,70.20
2022-10-05T07:12:03.723Z,70.07
2022-10-05T07:14:46.113Z,70.33
2022-10-05T07:17:27.682Z,70.26
2022-10-05T07:20:06.550Z,70.43
2022-10-05T07:22:51.568Z,70.29
2022-10-05T07:25:25.032Z,70.37
2022-10-05T07:28:00.960Z,70.30
2022-10-05T07:30:30.800Z,70.29
2022-10-05T07:33:09.454Z,70.31
2022-10-05T07:36:06.767Z,70.19
2022-10-05T07:38:40.102Z,70.36
2022-10-05T07:41:14.887Z,70.32
2022-10-05T07:44:02.090Z,70.46
2022-10-05T07:46:45.690Z,70.72
2022-10-05T07:49:22.706Z,70.64
2022-10-05T07:51:56.502Z,70.50
2022-10-05T07:54:30.390Z,70.74
2022-10-05T07:57:07.254Z,70.93
2022-10-05T07:59:39.905Z,70.59
2022-10-05T08:02:18.547Z,70.58
2022-10-05T08:04:54.546Z,70.68
2022-10-05T08:09:56.731Z,70.92
2022-10-05T08:12:32.076Z,70.98
2022-10-05T08:15:06.694Z,70.92
2022-10-05T08:17:45.440Z,70.86
2022-10-05T08:20:43.406Z,71.23
2022-10-05T08:23:21.245Z,71.34
2022-10-05T08:25:58.289Z,71.19
2022-10-05T08:28:29.536Z,71.25
2022-10-05T08:31:04.399Z,71.27
2022-10-05T08:33:42.662Z,71.08
2022-10-05T08:36:15.509Z,71.38
2022-10-05T08:38:49.923Z,71.33
2022-10-05T08:41:48.600Z,71.36
2022-10-05T08:45:05.982Z,71.23
2022-10-05T08:48:05.023Z,71.65
2022-10-05T08:50:51.360Z,71.73
2022-10-05T08:53:29.107Z,71.56
2022-10-05T08:56:28.920Z,71.81
2022-10-05T08:59:16.864Z,71.80
2022-10-05T09:02:12.776Z,71.76
2022-10-05T09:05:16.603Z,71.73
2022-10-05T09:08:05.264Z,71.67
2022-10-05T09:11:07.224Z,71.67
2022-10-05T09:13:50.740Z,71.83
2022-10-05T09:16:37.284Z,71.72
2022-10-05T09:19:32.054Z,71.79
2022-10-05T09:22:12.798Z,71.94
2022-10-05T09:24:55.195Z,71.67
2022-10-05T09:27:36.718Z,72.14
2022-10-05T09:30:19.359Z,72.15
2022-10-05T09:33:13.657Z,72.02
2022-10-05T09:36:15.563Z,72.16
2022-10-05T09:39:10.708Z,72.13
2022-10-05T09:41:57.459Z,72.28
2022-10-05T09:44:58.149Z,72.04
2022-10-05T09:47:59.838Z,72.01
2022-10-05T09:51:07.478Z,72.31
2022-10-05T09:54:09.722Z,72.29
2022-10-05T09:57:26.686Z,72.39
2022-10-05T10:00:21.664Z,72.38
2022-10-05T10:03:22.796Z,72.16
2022-10-05T10:06:20.950Z,72.36
2022-10-05T10:09:17.331Z,72.39
2022-10-05T10:12:05.249Z,72.21
2022-10-05T10:15:03.869Z,72.51
2022-10-05T10:18:03.123Z,72.34
2022-10-05T10:20:43.191Z,72.44
2022-10-05T10:23:45.077Z,72.46
2022-10-05T10:26:36.747Z,72.35
2022-10-05T10:29:42.939Z,72.47
2022-10-05T10:32:42.197Z,72.51
2022-10-05T10:35:32.496Z,72.44
2022-10-05T10:38:41.619Z,72.44
2022-10-05T10:41:48.736Z,72.61
2022-10-05T10:44:53.782Z,72.60
2022-10-05T10:47:48.323Z,72.63
2022-10-05T10:50:51.196Z,72.70
2022-10-05T10:53:45.171Z,72.72
2022-10-05T10:56:30.353Z,72.62
2022-10-05T10:59:37.357Z,72.34
2022-10-05T11:02:23.433Z,72.75
2022-10-05T11:05:09.359Z,72.62
2022-10-05T11:08:05.875Z,72.41
2022-10-05T11:10:58.878Z,72.76
2022-10-05T11:13:55.786Z,72.60
2022-10-05T11:16:47.597Z,72.63
2022-10-05T11:19:40.419Z,72.74
2022-10-05T11:22:40.089Z,72.69
2022-10-05T11:25:44.567Z,72.74
2022-10-05T11:28:46.117Z,72.75
2022-10-05T11:32:00.206Z,72.67
2022-10-05T11:35:02.291Z,72.75
2022-10-05T11:38:03.117Z,72.73
2022-10-05T11:41:13.885Z,72.70
2022-10-05T11:44:04.589Z,72.84
2022-10-05T11:46:42.911Z,72.76
2022-10-05T11:49:23.389Z,72.77
2022-10-05T11:52:06.374Z,72.75
2022-10-05T11:57:49.791Z,72.62
2022-10-05T12:00:21.220Z,72.71
2022-10-05T12:03:13.193Z,72.77
2022-10-05T12:05:49.838Z,72.83
2022-10-05T12:08:28.464Z,72.86
2022-10-05T12:11:08.411Z,72.85
2022-10-05T12:13:48.005Z,72.89
2022-10-05T12:16:22.211Z,72.85
2022-10-05T12:18:59.973Z,72.97
2022-10-05T12:21:40.963Z,72.80
2022-10-05T12:24:21.232Z,72.97
2022-10-05T12:26:59.085Z,72.74
2022-10-05T12:29:37.147Z,72.88
2022-10-05T12:32:14.593Z,72.85
2022-10-05T12:34:51.175Z,72.89
2022-10-05T12:37:40.810Z,72.80
2022-10-05T12:40:27.996Z,72.81
2022-10-05T12:43:15.568Z,72.74
2022-10-05T12:45:57.856Z,73.05
2022-10-05T12:48:42.377Z,72.75
2022-10-05T12:51:17.980Z,72.85
2022-10-05T12:53:53.163Z,72.75
2022-10-05T12:56:32.929Z,72.80
2022-10-05T12:59:07.791Z,72.70
2022-10-05T13:01:42.991Z,72.87
2022-10-05T13:04:26.853Z,72.86
2022-10-05T13:07:34.044Z,72.79
2022-10-05T13:10:18.523Z,72.73
2022-10-05T13:12:57.308Z,72.74
2022-10-05T13:15:30.804Z,72.71
2022-10-05T13:18:18.159Z,72.69
2022-10-05T13:20:52.220Z,72.71
2022-10-05T13:23:31.865Z,72.79
2022-10-05T13:26:08.068Z,72.65
2022-10-05T13:28:42.701Z,72.69
2022-10-05T13:31:17.200Z,72.69
2022-10-05T13:34:02.041Z,72.73
2022-10-05T13:36:40.339Z,72.70
2022-10-05T13:39:21.916Z,72.80
2022-10-05T13:41:55.715Z,72.79
2022-10-05T13:44:31.108Z,72.63
2022-10-05T13:47:03.176Z,72.61
2022-10-05T13:49:43.229Z,72.60
2022-10-05T13:52:26.883Z,72.61
2022-10-05T13:55:54.693Z,72.80
2022-10-05T13:58:33.824Z,72.76
2022-10-05T14:01:03.961Z,72.90
2022-10-05T14:03:34.933Z,72.70
2022-10-05T14:06:12.085Z,72.69
2022-10-05T14:08:50.848Z,72.59
2022-10-05T14:11:27.373Z,72.64
2022-10-05T14:14:05.396Z,72.75
2022-10-05T14:16:35.674Z,72.82
2022-10-05T14:19:20.124Z,72.59
2022-10-05T14:21:55.800Z,72.52
2022-10-05T14:24:44.131Z,72.70
2022-10-05T14:27:22.557Z,72.91
2022-10-05T14:29:59.851Z,72.83
2022-10-05T14:32:31.935Z,72.77
2022-10-05T14:35:15.704Z,72.93
2022-10-05T14:37:53.013Z,72.76
2022-10-05T14:40:28.710Z,73.04
2022-10-05T14:42:56.866Z,72.83
2022-10-05T14:45:26.415Z,72.95
2022-10-05T14:48:03.371Z,73.00
2022-10-05T14:50:32.479Z,72.78
2022-10-05T14:53:17.809Z,72.97
2022-10-05T14:56:03.081Z,73.06
2022-10-05T14:59:01.716Z,73.14
2022-10-05T15:01:31.646Z,72.95
2022-10-05T15:04:18.147Z,72.95
2022-10-05T15:06:57.609Z,72.83
2022-10-05T15:10:04.331Z,73.16
2022-10-05T15:12:35.874Z,73.18
2022-10-05T15:15:11.552Z,73.19
2022-10-05T15:17:46.608Z,73.02
2022-10-05T15:20:25.736Z,72.98
2022-10-05T15:23:00.473Z,73.12
2022-10-05T15:25:37.276Z,73.25
2022-10-05T15:28:13.103Z,73.41
2022-10-05T15:30:49.003Z,73.04
2022-10-05T15:33:22.542Z,73.35
2022-10-05T15:36:02.425Z,73.35
2022-10-05T15:38:36.732Z,73.42
2022-10-05T15:41:15.034Z,73.10
2022-10-05T15:44:00.113Z,73.33
2022-10-05T15:46:35.628Z,73.42
2022-10-05T15:49:16.391Z,73.35
2022-10-05T15:51:54.883Z,73.49
2022-10-05T15:54:51.129Z,73.26
2022-10-05T15:57:26.731Z,73.40
2022-10-05T16:00:04.111Z,73.44
2022-10-05T16:02:41.327Z,73.58
2022-10-05T16:05:47.850Z,73.50
2022-10-05T16:08:51.815Z,73.58
2022-10-05T16:11:30.966Z,73.47
2022-10-05T16:14:15.562Z,73.41
2022-10-05T16:16:52.249Z,73.62
2022-10-05T16:19:29.761Z,73.64
2022-10-05T16:22:07.256Z,73.37
2022-10-05T16:25:01.830Z,73.38
2022-10-05T16:27:41.843Z,73.58
2022-10-05T16:30:17.381Z,73.76
2022-10-05T16:32:54.423Z,73.59
2022-10-05T16:35:33.375Z,73.48
2022-10-05T16:38:16.837Z,73.70
2022-10-05T16:41:01.964Z,73.74
2022-10-05T16:43:44.903Z,73.72
2022-10-05T16:46:27.835Z,73.70
2022-10-05T16:49:04.953Z,73.73
2022-10-05T16:52:36.035Z,73.82
2022-10-05T16:55:12.107Z,73.72
2022-10-05T16:57:45.201Z,73.57
2022-10-05T17:00:20.715Z,73.74
2022-10-05T17:03:21.603Z,73.87
2022-10-05T17:06:06.571Z,73.93
2022-10-05T17:08:57.664Z,73.81
2022-10-05T17:11:39.764Z,73.87
2022-10-05T17:14:29.204Z,73.74
2022-10-05T17:17:15.990Z,73.78
2022-10-05T17:19:57.333Z,73.98
2022-10-05T17:22:29.524Z,73.75
2022-10-05T17:25:05.845Z,74.06
2022-10-05T17:27:51.012Z,74.00
2022-10-05T17:30:48.961Z,74.16
2022-10-05T17:33:27.472Z,74.01
2022-10-05T17:36:19.337Z,74.15
2022-10-05T17:38:50.234Z,73.98
2022-10-05T17:41:21.348Z,74.32
2022-10-05T17:44:27.865Z,74.10
2022-10-05T17:47:01.088Z,73.98
2022-10-05T17:50:14.176Z,74.29
2022-10-05T17:53:02.804Z,74.45
2022-10-05T17:56:03.264Z,74.13
2022-10-05T17:59:02.902Z,74.19
2022-10-05T18:01:33.934Z,74.06
2022-10-05T18:04:30.700Z,74.24
2022-10-05T18:07:04.629Z,74.16
2022-10-05T18:09:54.899Z,74.33
2022-10-05T18:12:48.637Z,74.49
2022-10-05T18:15:46.624Z,74.64
2022-10-05T18:18:54.739Z,74.48
2022-10-05T18:21:40.335Z,74.68
2022-10-05T18:24:36.561Z,74.55
2022-10-05T18:27:17.084Z,74.36
2022-10-05T18:30:09.033Z,74.65
2022-10-05T18:32:52.101Z,74.47
2022-10-05T18:35:26.663Z,74.80
2022-10-05T18:38:05.815Z,74.70
2022-10-05T18:40:45.645Z,74.49
2022-10-05T18:43:29.407Z,74.50
2022-10-05T18:46:26.352Z,74.81
2022-10-05T18:49:07.533Z,74.64
2022-10-05T18:51:50.981Z,74.63
2022-10-05T18:54:36.712Z,74.65
2022-10-05T18:58:16.822Z,74.92
2022-10-05T19:01:16.965Z,74.79
2022-10-05T19:03:57.593Z,74.88
2022-10-05T19:06:28.285Z,74.69
2022-10-05T19:09:07.826Z,74.83
2022-10-05T19:11:43.608Z,74.86
2022-10-05T19:14:24.737Z,74.82
2022-10-05T19:17:13.372Z,75.06
2022-10-05T19:19:53.397Z,75.01
2022-10-05T19:22:33.958Z,74.94
2022-10-05T19:25:25.070Z,74.96
2022-10-05T19:28:03.496Z,75.10
2022-10-05T19:30:46.058Z,75.02
2022-10-05T19:33:29.882Z,75.03
2022-10-05T19:36:11.875Z,74.82
2022-10-05T19:38:52.575Z,75.32
2022-10-05T19:41:31.132Z,75.13
2022-10-05T19:44:15.186Z,75.07
2022-10-05T19:46:55.408Z,75.10
2022-10-05T19:49:44.799Z,75.03
2022-10-05T19:52:21.058Z,75.14
2022-10-05T19:55:05.162Z,75.13
2022-10-05T19:57:46.427Z,75.22
2022-10-05T20:00:24.784Z,75.10
2022-10-05T20:03:09.001Z,75.00
2022-10-05T20:05:37.517Z,75.08
2022-10-05T20:08:05.741Z,74.90
2022-10-05T20:10:34.210Z,75.26
2022-10-05T20:13:08.687Z,75.14
2022-10-05T20:15:55.107Z,74.96
2022-10-05T20:18:57.910Z,75.20
2022-10-05T20:21:47.756Z,75.29
2022-10-05T20:24:18.326Z,75.12
2022-10-05T20:27:05.559Z,75.13
2022-10-05T20:29:37.054Z,75.09
2022-10-05T20:32:08.751Z,75.30
2022-10-05T20:34:37.857Z,75.09
2022-10-05T20:37:05.639Z,74.94
2022-10-05T20:39:33.695Z,75.38
2022-10-05T20:42:01.718Z,75.06
2022-10-05T20:44:29.646Z,75.26
2022-10-05T20:47:01.329Z,75.32
2022-10-05T20:49:31.172Z,75.30
2022-10-05T20:51:59.675Z,75.01
2022-10-05T20:54:28.827Z,75.26
2022-10-05T20:56:57.082Z,75.14
2022-10-05T20:59:26.368Z,75.06
2022-10-05T21:01:54.706Z,75.00
2022-10-05T21:04:26.055Z,75.33
2022-10-05T21:06:54.712Z,75.08
2022-10-05T21:09:22.789Z,75.20
2022-10-05T21:11:52.920Z,75.21
2022-10-05T21:14:20.893Z,75.23
2022-10-05T21:16:49.035Z,75.07
2022-10-05T21:19:17.354Z,75.24
2022-10-05T21:21:48.000Z,75.17
2022-10-05T21:24:17.345Z,75.14
2022-10-05T21:26:45.688Z,74.99
2022-10-05T21:29:14.036Z,75.22
2022-10-05T21:31:42.231Z,75.24
2022-10-05T21:34:10.249Z,75.23
2022-10-05T21:36:38.458Z,75.07
2022-10-05T21:39:08.265Z,75.15
2022-10-05T21:41:36.141Z,75.16
2022-10-05T21:44:04.243Z,75.29
2022-10-05T21:46:32.147Z,75.07
2022-10-05T21:49:00.128Z,75.34
2022-10-05T21:51:28.786Z,75.20
2022-10-05T21:54:01.687Z,75.26
2022-10-05T21:56:34.946Z,75.16
2022-10-05T21:59:04.044Z,75.33
2022-10-05T22:01:31.918Z,75.08
2022-10-05T22:04:00.112Z,74.95
2022-10-05T22:06:28.376Z,75.40
2022-10-05T22:08:56.415Z,75.21
2022-10-05T22:11:24.712Z,74.92
2022-10-05T22:13:54.517Z,75.07
2022-10-05T22:16:24.823Z,75.03
2022-10-05T22:18:53.713Z,75.02
2022-10-05T22:21:22.135Z,75.25
2022-10-05T22:23:50.915Z,75.34
2022-10-05T22:26:22.192Z,75.02
2022-10-05T22:28:55.671Z,75.08
2022-10-05T22:31:23.744Z,75.25
2022-10-05T22:33:51.883Z,75.12
2022-10-05T22:36:20.131Z,75.26
2022-10-05T22:38:48.445Z,75.00
2022-10-05T22:41:18.422Z,75.15
2022-10-05T22:43:50.287Z,75.29
2022-10-05T22:46:20.330Z,75.23
2022-10-05T22:48:48.225Z,75.19
2022-10-05T22:51:16.299Z,75.10
2022-10-05T22:53:44.174Z,75.02
2022-10-05T22:56:14.167Z,75.07
2022-10-05T22:58:43.579Z,75.27
2022-10-05T23:01:14.111Z,75.22
2022-10-05T23:03:44.536Z,75.42
2022-10-05T23:06:14.735Z,75.28
2022-10-05T23:08:43.553Z,75.31
2022-10-05T23:11:13.732Z,75.17
2022-10-05T23:13:42.136Z,75.01
2022-10-05T23:16:13.002Z,75.00
2022-10-05T23:18:41.757Z,75.01
2022-10-05T23:21:12.152Z,75.00
2022-10-05T23:23:41.717Z,75.21
2022-10-05T23:26:11.946Z,74.89
2022-10-05T23:28:40.365Z,74.90
2022-10-05T23:31:09.521Z,75.12
2022-10-05T23:33:37.446Z,75.07
2022-10-05T23:36:08.533Z,75.23
2022-10-05T23:38:37.964Z,75.24
2022-10-05T23:41:06.792Z,75.15
2022-10-05T23:43:35.024Z,75.01
2022-10-05T23:46:03.785Z,74.90
2022-10-05T23:48:32.680Z,75.02
2022-10-05T23:51:01.613Z,75.22
2022-10-05T23:53:29.377Z,75.16
2022-10-05T23:55:58.575Z,74.79
2022-10-05T23:58:27.235Z,74.98
